Time;durP1;ratioP1;P1;durP2;ratioP2;P2;SDS_P1;SDS_P2;PMS_P1;PMS_P2;Temp;Humidity;BMP_temperature;BMP_pressure;BME280_temperature;BME280_humidity;BME280_pressure;Samples;Min_cycle;Max_cycle;Signal;HPM_P1;HPM_P2
2021/12/19 00:00:13;;;;;;;11.03;7.47;;;;;;;3.81;96.58;99522.00;1687103;84;20993;-42
2021/12/19 00:10:28;;;;;;;6.65;5.30;;;;;;;3.81;96.68;99485.58;1687705;85;20993;-41
2021/12/19 00:12:56;;;;;;;6.60;5.00;;;;;;;3.82;96.83;99483.40;1687934;84;21025;-42
2021/12/19 00:15:22;;;;;;;6.33;4.40;;;;;;;3.87;96.81;99482.42;1687431;84;21617;-41
2021/12/19 00:17:48;;;;;;;6.03;4.58;;;;;;;3.90;96.62;99479.75;1687310;84;20989;-42
2021/12/19 00:20:13;;;;;;;7.45;5.08;;;;;;;3.90;96.51;99471.49;1686990;85;21029;-40
2021/12/19 00:22:39;;;;;;;5.97;4.15;;;;;;;3.91;96.66;99474.94;1688243;84;21001;-40
2021/12/19 00:25:06;;;;;;;4.40;3.90;;;;;;;3.95;96.50;99460.98;1688030;84;21054;-42
2021/12/19 00:27:32;;;;;;;3.85;3.45;;;;;;;3.95;96.25;99476.59;1687828;83;21022;-41
2021/12/19 00:29:59;;;;;;;4.67;3.55;;;;;;;3.85;95.90;99462.95;1688879;84;21498;-42
2021/12/19 00:32:25;;;;;;;4.30;2.70;;;;;;;3.82;95.78;99471.70;1688387;83;21017;-42
2021/12/19 00:34:52;;;;;;;4.97;3.37;;;;;;;3.88;95.83;99451.17;1687256;84;21017;-42
2021/12/19 00:37:20;;;;;;;3.45;3.15;;;;;;;3.90;95.67;99451.98;1688199;84;21024;-41
2021/12/19 00:39:47;;;;;;;4.15;3.75;;;;;;;3.94;95.55;99454.06;1672623;85;21001;-41
2021/12/19 00:42:16;;;;;;;4.50;3.52;;;;;;;3.94;95.40;99451.45;1687730;83;21067;-40
2021/12/19 00:44:42;;;;;;;4.55;3.80;;;;;;;3.93;95.57;99447.13;1693513;83;21039;-41
2021/12/19 00:47:08;;;;;;;4.65;4.15;;;;;;;3.98;95.79;99460.89;1694639;83;21005;-42
2021/12/19 00:49:35;;;;;;;7.03;4.87;;;;;;;4.02;95.82;99462.51;1689574;83;21037;-40
2021/12/19 00:52:04;;;;;;;4.97;4.45;;;;;;;4.01;95.90;99455.61;1685131;85;21462;-40
2021/12/19 00:54:30;;;;;;;5.40;4.17;;;;;;;4.06;95.91;99460.26;1684976;84;21025;-40
2021/12/19 00:56:55;;;;;;;5.17;4.67;;;;;;;4.00;95.76;99453.47;1684944;84;20982;-42
2021/12/19 00:59:21;;;;;;;6.40;4.30;;;;;;;4.05;95.58;99441.62;1684969;84;21056;-42
2021/12/19 01:01:48;;;;;;;4.65;4.03;;;;;;;3.98;95.70;99430.53;1684950;85;20989;-41
2021/12/19 01:04:17;;;;;;;4.35;3.80;;;;;;;4.01;95.80;99433.49;1684933;85;21017;-41
2021/12/19 01:06:46;;;;;;;4.72;4.30;;;;;;;3.99;95.72;99440.49;1685014;84;21005;-40
2021/12/19 01:09:13;;;;;;;4.45;3.90;;;;;;;3.99;95.69;99427.48;1684957;84;21009;-41
2021/12/19 01:11:39;;;;;;;3.85;3.45;;;;;;;3.99;95.64;99413.17;1685066;84;21518;-41
2021/12/19 01:14:07;;;;;;;3.62;3.33;;;;;;;3.92;95.97;99404.66;1685065;85;21029;-40
2021/12/19 01:16:33;;;;;;;3.72;3.35;;;;;;;3.96;95.70;99403.67;1685057;85;20978;-40
2021/12/19 01:18:59;;;;;;;3.25;2.95;;;;;;;3.89;95.56;99399.98;1685061;84;21502;-40
2021/12/19 01:21:25;;;;;;;3.42;3.10;;;;;;;3.91;95.64;99381.28;1685157;84;21004;-40
2021/12/19 01:23:51;;;;;;;3.77;3.47;;;;;;;3.94;95.74;99395.06;1684920;84;21057;-42
2021/12/19 01:26:17;;;;;;;3.85;3.45;;;;;;;3.98;95.55;99395.83;1684945;84;21005;-40
2021/12/19 01:28:43;;;;;;;3.47;3.15;;;;;;;3.89;95.47;99387.82;1684962;84;20982;-41
2021/12/19 01:31:10;;;;;;;3.27;2.98;;;;;;;3.85;95.59;99384.45;1685004;84;21009;-41
2021/12/19 01:33:37;;;;;;;4.75;3.67;;;;;;;3.87;95.57;99377.91;1685110;84;21153;-41
2021/12/19 01:36:04;;;;;;;3.20;2.98;;;;;;;3.90;95.44;99375.69;1685216;85;20989;-42
2021/12/19 01:38:30;;;;;;;2.92;2.70;;;;;;;3.92;95.17;99378.64;1685085;84;21647;-40
2021/12/19 01:40:57;;;;;;;3.62;3.30;;;;;;;3.97;94.99;99373.33;1684824;84;21573;-41
2021/12/19 01:43:25;;;;;;;3.35;3.05;;;;;;;3.98;94.78;99364.61;1685045;84;20981;-41
2021/12/19 01:45:52;;;;;;;;;;;;;;;3.97;94.82;99368.13;1687587;85;21013;-40
2021/12/19 01:48:20;;;;;;;2.65;2.45;;;;;;;3.89;94.84;99351.85;1684934;85;20117;-41
2021/12/19 01:50:46;;;;;;;3.75;3.45;;;;;;;3.92;95.04;99342.67;1692428;84;21549;-42
2021/12/19 01:53:13;;;;;;;3.40;3.10;;;;;;;3.89;95.10;99338.84;1693487;84;21057;-40
2021/12/19 01:55:42;;;;;;;3.05;2.85;;;;;;;3.90;95.36;99333.61;1691196;85;21018;-41
2021/12/19 01:58:08;;;;;;;2.72;2.50;;;;;;;3.94;95.31;99315.70;1683910;84;21058;-39
2021/12/19 02:00:42;;;;;;;3.37;3.08;;;;;;;3.82;95.47;99305.20;1680700;85;21060;-42
2021/12/19 02:03:10;;;;;;;4.30;2.72;;;;;;;3.85;95.69;99305.09;1681709;84;21487;-40
2021/12/19 02:05:37;;;;;;;2.72;2.52;;;;;;;3.88;95.59;99307.23;1683909;85;21052;-41
2021/12/19 02:08:05;;;;;;;2.90;2.65;;;;;;;3.78;95.88;99292.31;1681161;85;20985;-40
2021/12/19 02:10:32;;;;;;;;;;;;;;;3.84;95.88;99289.11;1685097;84;21017;-41
2021/12/19 02:13:00;;;;;;;2.60;2.40;;;;;;;3.88;95.97;99283.83;1681541;85;20134;-41
2021/12/19 02:15:29;;;;;;;2.77;2.58;;;;;;;3.84;95.98;99272.20;1683409;84;21012;-43
2021/12/19 02:18:00;;;;;;;2.92;2.67;;;;;;;3.90;96.01;99259.92;1680613;85;21018;-40
2021/12/19 02:20:33;;;;;;;3.45;2.15;;;;;;;3.91;96.04;99259.00;1683482;84;21825;-41
2021/12/19 02:22:59;;;;;;;4.05;2.08;;;;;;;3.98;95.91;99250.12;1681062;84;21013;-40
2021/12/19 02:25:25;;;;;;;2.72;2.50;;;;;;;3.99;96.04;99221.92;1681147;85;21009;-40
2021/12/19 02:27:50;;;;;;;2.30;2.20;;;;;;;3.95;95.93;99195.59;1683643;84;21057;-42
2021/12/19 02:30:16;;;;;;;2.47;2.27;;;;;;;4.02;95.87;99199.27;1683677;85;21009;-40
2021/12/19 02:32:42;;;;;;;2.50;2.30;;;;;;;4.06;95.74;99214.34;1680948;85;21057;-40
2021/12/19 02:35:16;;;;;;;2.45;2.25;;;;;;;4.07;95.84;99212.58;1683548;84;21510;-41
2021/12/19 02:48:36;;;;;;;2.72;2.52;;;;;;;4.13;95.89;99175.52;1655320;87;21615;-41
2021/12/19 02:51:03;;;;;;;4.05;2.40;;;;;;;4.11;96.05;99158.23;1655810;87;21023;-41
2021/12/19 02:53:39;;;;;;;3.37;2.80;;;;;;;4.17;96.19;99152.85;1655828;87;21031;-40
2021/12/19 02:56:11;;;;;;;2.70;2.45;;;;;;;4.11;96.30;99143.48;1655777;87;21527;-41
2021/12/19 02:58:41;;;;;;;2.58;2.37;;;;;;;4.16;96.30;99148.08;1655714;87;21067;-41
2021/12/19 03:01:15;;;;;;;3.37;2.50;;;;;;;4.20;96.35;99162.72;1655691;87;21067;-41
2021/12/19 03:03:41;;;;;;;2.75;2.27;;;;;;;4.14;96.42;99164.19;1655703;85;20999;-40
2021/12/19 03:06:07;;;;;;;2.60;2.40;;;;;;;4.19;96.34;99147.14;1655709;87;21031;-40
2021/12/19 03:08:35;;;;;;;4.25;2.60;;;;;;;4.14;96.66;99151.17;1655699;87;21007;-40
2021/12/19 03:17:56;;;;;;;3.00;2.45;;;;;;;4.18;96.77;99133.29;1669817;83;20977;-40
2021/12/19 03:18:50;;;;;;;2.85;2.60;;;;;;;4.19;97.29;99136.73;1718839;83;21036;-41
2021/12/19 03:21:18;;;;;;;3.00;2.67;;;;;;;4.26;97.03;99142.14;1719052;83;21513;-40
2021/12/19 03:23:44;;;;;;;2.92;2.60;;;;;;;4.25;97.25;99127.88;1719047;83;21009;-40
2021/12/19 03:26:09;;;;;;;2.95;2.50;;;;;;;4.23;97.15;99127.46;1718808;83;21052;-41
2021/12/19 03:28:35;;;;;;;5.22;2.67;;;;;;;4.25;97.53;99130.48;1718894;83;21048;-41
2021/12/19 03:31:02;;;;;;;2.62;2.42;;;;;;;4.25;97.94;99109.66;1718923;83;20977;-41
2021/12/19 03:33:31;;;;;;;3.83;3.22;;;;;;;4.25;98.09;99110.95;1719005;83;20985;-41
2021/12/19 03:35:57;;;;;;;3.02;2.70;;;;;;;4.29;97.97;99108.64;1718841;83;21003;-40
2021/12/19 03:38:24;;;;;;;3.20;2.67;;;;;;;4.30;97.88;99092.14;1719086;83;21675;-41
2021/12/19 03:41:07;;;;;;;;;;;;;;;4.33;97.85;99094.62;1721625;83;21009;-41
2021/12/19 03:43:23;;;;;;;3.02;2.83;;;;;;;4.30;98.04;99086.94;1728261;82;20204;-40
2021/12/19 03:45:50;;;;;;;3.20;2.90;;;;;;;4.31;98.11;99084.71;1723950;82;21003;-40
2021/12/19 03:48:16;;;;;;;3.25;2.80;;;;;;;4.32;98.22;99077.31;1721312;83;21037;-40
2021/12/19 03:50:48;;;;;;;4.50;2.90;;;;;;;4.33;98.33;99065.55;1721398;83;21012;-41
2021/12/19 03:53:17;;;;;;;3.30;3.00;;;;;;;4.32;98.46;99061.23;1721353;83;21044;-40
2021/12/19 03:55:44;;;;;;;3.45;3.15;;;;;;;4.41;98.04;99045.30;1721275;83;21008;-41
2021/12/19 03:58:10;;;;;;;4.15;3.60;;;;;;;4.43;97.92;99062.18;1721362;83;21001;-42
2021/12/19 04:00:38;;;;;;;4.62;3.70;;;;;;;4.43;98.18;99056.97;1721359;83;21061;-42
2021/12/19 04:03:09;;;;;;;5.08;3.37;;;;;;;4.41;98.23;99047.91;1721223;83;21521;-41
2021/12/19 04:05:35;;;;;;;5.97;3.40;;;;;;;4.47;98.12;99040.80;1721209;83;20989;-40
2021/12/19 04:08:01;;;;;;;4.53;3.75;;;;;;;4.54;97.96;99044.43;1721261;83;21040;-41
2021/12/19 04:10:28;;;;;;;4.45;3.67;;;;;;;4.52;97.79;99049.30;1721271;83;21000;-40
2021/12/19 04:12:55;;;;;;;6.37;3.60;;;;;;;4.48;97.83;99045.95;1721526;83;21004;-39
2021/12/19 04:15:22;;;;;;;4.65;3.75;;;;;;;4.52;98.15;99044.94;1721377;83;21477;-39
2021/12/19 04:17:48;;;;;;;8.13;4.70;;;;;;;4.57;98.07;99047.39;1721530;83;21009;-40
2021/12/19 04:20:15;;;;;;;4.95;4.08;;;;;;;4.57;98.00;99037.82;1721236;83;21040;-40
2021/12/19 04:22:42;;;;;;;6.62;4.30;;;;;;;4.60;97.86;99037.72;1721383;83;20988;-41
2021/12/19 04:25:10;;;;;;;7.10;4.30;;;;;;;4.56;97.82;99030.90;1721414;83;21004;-41
2021/12/19 04:27:37;;;;;;;5.45;4.40;;;;;;;4.64;97.63;99038.90;1721368;83;21012;-41
2021/12/19 04:30:07;;;;;;;7.12;4.65;;;;;;;4.60;97.61;99021.22;1721397;83;21008;-40
2021/12/19 04:32:38;;;;;;;8.75;4.72;;;;;;;4.65;97.49;99013.27;1721054;83;21387;-40
2021/12/19 04:35:01;;;;;;;10.18;5.17;;;;;;;4.59;97.57;99011.27;1721191;83;21112;-40
2021/12/19 04:53:49;;;;;;;9.70;5.42;;;;;;;4.67;97.55;99030.52;1691373;83;21569;-41
2021/12/19 04:56:22;;;;;;;11.85;5.40;;;;;;;4.69;97.22;99019.59;1719724;83;21486;-41
2021/12/19 05:14:10;;;;;;;6.47;4.25;;;;;;;4.85;95.44;99021.66;1718920;83;21501;-41
2021/12/19 05:16:36;;;;;;;;;;;;;;;4.79;94.94;99001.44;1721503;83;21032;-42
2021/12/19 05:19:07;;;;;;;7.55;4.28;;;;;;;4.82;94.93;98997.89;1718896;83;20473;-42
2021/12/19 05:21:29;;;;;;;13.68;4.87;;;;;;;4.76;94.93;98992.42;1718957;83;20997;-41
2021/12/19 05:26:22;;;;;;;12.05;4.00;;;;;;;4.78;94.82;98958.07;1718903;83;21498;-41
2021/12/19 05:28:48;;;;;;;10.70;4.05;;;;;;;4.80;94.29;98954.08;1718912;83;21001;-42
2021/12/19 05:31:15;;;;;;;8.18;3.98;;;;;;;4.83;93.87;98974.82;1718871;83;20989;-40
2021/12/19 05:33:41;;;;;;;;;;;;;;;4.85;93.59;98959.98;1721488;83;21481;-40
2021/12/19 05:44:14;;;;;;;10.43;4.45;;;;;;;4.77;93.78;98952.45;1718783;83;21581;-40
2021/12/19 05:46:36;;;;;;;11.20;3.98;;;;;;;4.78;93.51;98960.67;1717984;83;20973;-42
2021/12/19 05:49:04;;;;;;;7.58;3.50;;;;;;;4.74;93.48;98967.34;1718882;83;21047;-42
2021/12/19 05:51:30;;;;;;;8.70;3.47;;;;;;;4.77;93.38;98973.30;1718903;83;21000;-42
2021/12/19 05:53:56;;;;;;;11.12;4.10;;;;;;;4.81;93.39;98963.61;1719118;83;20988;-40
2021/12/19 05:56:22;;;;;;;10.43;4.08;;;;;;;4.81;93.04;98964.45;1718872;83;21000;-41
2021/12/19 05:58:48;;;;;;;8.35;4.37;;;;;;;4.78;93.14;98967.62;1718861;83;21056;-42
2021/12/19 06:01:14;;;;;;;11.60;4.17;;;;;;;4.86;93.19;98977.75;1718881;83;21001;-41
2021/12/19 06:03:40;;;;;;;8.38;3.62;;;;;;;4.81;93.21;98979.24;1718933;83;20989;-40
2021/12/19 06:06:06;;;;;;;14.13;3.87;;;;;;;4.88;93.25;98983.32;1718917;83;21533;-42
2021/12/19 06:08:32;;;;;;;6.08;3.20;;;;;;;4.88;93.01;98987.23;1718864;83;21524;-40
2021/12/19 06:10:58;;;;;;;6.40;3.10;;;;;;;4.84;93.07;98984.34;1718863;83;21059;-41
2021/12/19 06:13:24;;;;;;;7.53;3.45;;;;;;;4.87;93.07;98973.80;1718869;83;21012;-40
2021/12/19 06:15:53;;;;;;;10.32;3.92;;;;;;;4.84;93.25;98996.08;1718859;82;20977;-40
2021/12/19 06:18:17;;;;;;;;;;;;;;;4.78;93.33;98967.62;1721473;83;20969;-42
2021/12/19 06:20:43;;;;;;;6.70;3.22;;;;;;;4.78;93.64;98967.62;1718878;83;20137;-41
2021/12/19 06:23:09;;;;;;;7.75;4.10;;;;;;;4.75;93.69;98963.84;1718812;83;21088;-40
2021/12/19 06:25:35;;;;;;;7.58;3.70;;;;;;;4.79;93.81;98973.24;1718967;83;21049;-42
2021/12/19 06:28:02;;;;;;;8.73;3.92;;;;;;;4.73;93.83;98978.23;1718930;83;21040;-42
2021/12/19 06:30:29;;;;;;;8.58;3.47;;;;;;;4.73;94.00;98976.05;1719056;83;21661;-41
2021/12/19 06:32:54;;;;;;;9.48;3.20;;;;;;;4.69;94.31;98974.47;1718870;83;21556;-42
2021/12/19 06:35:22;;;;;;;14.95;3.90;;;;;;;4.67;94.33;98973.69;1718873;83;21040;-42
2021/12/19 06:37:49;;;;;;;;;;;;;;;4.61;94.35;98979.50;1721413;83;21008;-41
2021/12/19 06:40:20;;;;;;;7.60;3.37;;;;;;;4.63;94.64;98987.73;1719072;83;20157;-41
2021/12/19 06:42:47;;;;;;;8.03;3.67;;;;;;;4.59;94.99;98964.85;1718839;82;21584;-40
2021/12/19 06:45:13;;;;;;;6.05;3.15;;;;;;;4.57;95.10;98963.59;1718982;83;21064;-42
2021/12/19 06:47:40;;;;;;;4.40;2.70;;;;;;;4.60;95.20;98964.80;1718846;83;21044;-40
2021/12/19 06:50:08;;;;;;;7.77;2.60;;;;;;;4.54;95.48;98948.08;1719193;83;21589;-40
2021/12/19 06:52:35;;;;;;;7.17;3.20;;;;;;;4.46;96.04;98957.06;1718816;83;21562;-42
2021/12/19 06:55:02;;;;;;;7.25;3.55;;;;;;;4.52;96.00;98954.26;1718990;83;21060;-41
2021/12/19 06:57:27;;;;;;;7.75;3.05;;;;;;;4.52;95.94;98956.86;1718855;82;21004;-40
2021/12/19 06:59:53;;;;;;;7.28;3.02;;;;;;;4.57;95.88;98955.78;1718849;82;21048;-42
2021/12/19 07:02:19;;;;;;;4.15;2.22;;;;;;;4.51;96.09;98954.72;1718945;83;21043;-41
2021/12/19 07:04:45;;;;;;;5.20;2.55;;;;;;;4.51;96.31;98954.72;1718833;82;21486;-40
2021/12/19 07:07:12;;;;;;;3.70;2.35;;;;;;;4.53;96.27;98962.45;1718889;83;21501;-41
2021/12/19 07:09:39;;;;;;;4.17;3.15;;;;;;;4.50;96.28;98946.50;1718996;83;20996;-42
2021/12/19 07:12:07;;;;;;;4.10;2.92;;;;;;;4.54;96.06;98955.89;1719087;83;21000;-42
2021/12/19 07:14:33;;;;;;;9.65;3.50;;;;;;;4.56;96.09;98950.63;1719031;83;21009;-40
2021/12/19 07:16:59;;;;;;;6.67;3.20;;;;;;;4.57;95.89;98953.19;1718950;82;21016;-40
2021/12/19 07:19:25;;;;;;;6.80;3.87;;;;;;;4.53;95.84;98943.79;1718966;83;21009;-41
2021/12/19 07:21:51;;;;;;;7.10;3.42;;;;;;;4.50;96.15;98969.93;1719013;83;21000;-41
2021/12/19 07:24:16;;;;;;;7.28;2.62;;;;;;;4.53;96.09;98950.73;1718952;83;21012;-40
2021/12/19 07:26:42;;;;;;;9.65;3.95;;;;;;;4.52;96.28;98951.66;1719038;83;20996;-42
2021/12/19 07:29:08;;;;;;;4.95;2.98;;;;;;;4.47;96.65;98948.36;1719028;83;21498;-43
2021/12/19 07:31:37;;;;;;;4.85;2.90;;;;;;;4.50;96.62;98943.05;1719106;83;21513;-41
2021/12/19 07:34:02;;;;;;;6.12;2.98;;;;;;;4.47;96.50;98948.36;1718889;83;21053;-42
2021/12/19 07:36:35;;;;;;;3.42;2.62;;;;;;;4.45;96.79;98942.36;1718977;83;20981;-40
2021/12/19 07:39:07;;;;;;;4.95;2.87;;;;;;;4.53;96.75;98944.22;1718870;83;21438;-42
2021/12/19 07:41:29;;;;;;;5.80;3.17;;;;;;;4.50;96.52;98946.95;1719074;83;20996;-42
2021/12/19 07:43:56;;;;;;;5.85;3.80;;;;;;;4.53;96.29;98950.30;1719214;82;21040;-41
2021/12/19 07:46:22;;;;;;;6.22;3.20;;;;;;;4.57;96.24;98942.77;1699103;83;21044;-41
2021/12/19 07:48:48;;;;;;;6.72;3.90;;;;;;;4.57;96.08;98940.63;1718923;83;21009;-42
2021/12/19 07:51:13;;;;;;;6.58;3.27;;;;;;;4.58;95.87;98937.97;1718982;82;21004;-40
2021/12/19 07:53:39;;;;;;;7.80;3.50;;;;;;;4.59;95.97;98943.55;1721185;83;20980;-42
2021/12/19 07:56:05;;;;;;;8.13;3.15;;;;;;;4.51;95.94;98928.68;1690936;83;20981;-42
2021/12/19 07:58:31;;;;;;;5.05;3.10;;;;;;;4.56;96.04;98928.03;1721257;83;21008;-41
2021/12/19 08:00:57;;;;;;;5.75;2.87;;;;;;;4.52;96.08;98930.36;1721389;83;20997;-42
2021/12/19 08:03:23;;;;;;;5.15;2.72;;;;;;;4.52;96.35;98930.36;1721202;83;21001;-41
2021/12/19 08:05:50;;;;;;;4.08;2.87;;;;;;;4.51;96.10;98927.37;1721343;83;21009;-41
2021/12/19 08:08:21;;;;;;;4.97;2.40;;;;;;;4.45;96.52;98931.48;1721547;83;21032;-42
2021/12/19 08:13:10;;;;;;;5.20;3.05;;;;;;;4.42;96.89;98914.66;1721267;83;20985;-44
2021/12/19 08:15:37;;;;;;;7.03;3.50;;;;;;;4.40;97.02;98917.34;1721227;83;21024;-42
2021/12/19 08:18:05;;;;;;;8.25;3.27;;;;;;;4.40;97.08;98927.77;1721369;83;21004;-40
2021/12/19 08:20:33;;;;;;;7.00;3.50;;;;;;;4.43;96.98;98925.02;1721256;83;21525;-41
2021/12/19 08:22:59;;;;;;;7.87;3.77;;;;;;;4.38;96.97;98928.70;1721251;83;21509;-41
2021/12/19 08:25:26;;;;;;;7.70;4.10;;;;;;;4.40;97.08;98916.05;1721277;83;21497;-41
2021/12/19 08:27:53;;;;;;;6.53;3.93;;;;;;;4.48;96.86;98917.06;1721501;83;20984;-42
2021/12/19 08:30:20;;;;;;;8.98;4.25;;;;;;;4.42;96.92;98917.27;1721470;83;21016;-40
2021/12/19 08:32:47;;;;;;;4.50;3.50;;;;;;;4.49;96.99;98906.19;1721238;83;21492;-41
2021/12/19 08:35:13;;;;;;;6.37;4.12;;;;;;;4.52;96.86;98904.78;1721237;83;21060;-39
2021/12/19 08:37:39;;;;;;;9.30;3.90;;;;;;;4.54;96.39;98914.22;1721300;83;21352;-42
2021/12/19 08:40:11;;;;;;;8.10;3.60;;;;;;;4.56;96.11;98908.50;1721280;83;20981;-39
2021/12/19 08:42:36;;;;;;;4.78;2.80;;;;;;;4.57;96.17;98908.07;1721079;83;21044;-43
2021/12/19 08:45:03;;;;;;;4.80;2.50;;;;;;;4.60;95.94;98904.03;1721189;83;21072;-42
2021/12/19 08:47:28;;;;;;;6.42;2.67;;;;;;;4.60;95.99;98916.63;1721618;83;20977;-42
2021/12/19 08:49:54;;;;;;;6.70;3.40;;;;;;;4.61;95.80;98900.07;1721332;83;21000;-40
2021/12/19 08:52:20;;;;;;;10.30;3.83;;;;;;;4.63;95.60;98897.41;1721208;83;21012;-42
2021/12/19 08:54:47;;;;;;;5.67;3.37;;;;;;;4.59;95.42;98907.55;1721208;83;21036;-40
2021/12/19 08:57:12;;;;;;;6.37;2.90;;;;;;;4.66;95.33;98899.05;1721461;83;21004;-43
2021/12/19 08:59:38;;;;;;;6.10;3.92;;;;;;;4.66;95.26;98895.14;1721297;83;21012;-40
2021/12/19 09:02:04;;;;;;;8.53;2.83;;;;;;;4.63;95.21;98898.72;1721311;83;21494;-40
2021/12/19 09:04:30;;;;;;;10.00;4.90;;;;;;;4.63;95.12;98900.48;1721276;83;21048;-41
2021/12/19 09:06:58;;;;;;;8.48;4.42;;;;;;;4.74;95.10;98920.45;1721219;83;21000;-42
2021/12/19 09:09:24;;;;;;;;;;;;;;;4.73;94.93;98917.44;1723792;83;20985;-42
2021/12/19 09:11:52;;;;;;;4.42;2.75;;;;;;;4.73;94.61;98944.80;1721229;83;20161;-40
2021/12/19 09:14:18;;;;;;;6.97;3.85;;;;;;;4.68;94.38;98894.66;1721269;83;21056;-41
2021/12/19 09:16:44;;;;;;;11.90;6.97;;;;;;;4.69;94.41;98897.17;1721435;83;21007;-40
2021/12/19 09:19:10;;;;;;;8.28;3.58;;;;;;;4.67;94.35;98903.36;1721202;83;20985;-40
2021/12/19 09:21:36;;;;;;;9.58;3.80;;;;;;;4.72;94.28;98904.88;1721195;83;21017;-42
2021/12/19 09:24:03;;;;;;;5.87;3.50;;;;;;;4.68;94.28;98897.25;1721217;83;21462;-41
2021/12/19 09:26:29;;;;;;;16.00;10.38;;;;;;;4.67;94.29;98898.98;1721387;83;21573;-43
2021/12/19 09:28:54;;;;;;;17.87;11.93;;;;;;;4.73;94.22;98903.98;1721259;83;21024;-41
2021/12/19 09:31:22;;;;;;;7.47;5.53;;;;;;;4.77;93.96;98896.91;1721194;83;21009;-41
2021/12/19 09:33:48;;;;;;;12.95;5.03;;;;;;;4.83;93.90;98899.27;1721427;83;21005;-42
2021/12/19 09:36:14;;;;;;;11.50;4.42;;;;;;;4.82;93.73;98894.98;1721420;83;21533;-42
2021/12/19 09:38:41;;;;;;;9.30;4.92;;;;;;;4.86;93.57;98891.34;1721196;83;20976;-42
2021/12/19 09:41:13;;;;;;;7.83;4.85;;;;;;;4.82;93.51;98893.68;1720290;83;21020;-42
2021/12/19 09:43:42;;;;;;;14.95;5.60;;;;;;;4.84;93.19;98884.48;1720510;82;21079;-40
2021/12/19 09:46:16;;;;;;;20.05;8.95;;;;;;;4.81;92.89;98882.39;1721111;83;21643;-42
2021/12/19 09:48:45;;;;;;;25.27;9.45;;;;;;;4.87;93.05;98873.48;1721112;83;21016;-41
2021/12/19 09:51:13;;;;;;;16.90;8.00;;;;;;;4.85;92.98;98872.70;1721099;83;21059;-42
2021/12/19 09:53:40;;;;;;;35.98;16.85;;;;;;;4.92;92.74;98865.04;1721230;83;21064;-42
2021/12/19 09:56:07;;;;;;;64.10;31.80;;;;;;;4.82;92.54;98854.60;1721326;83;20984;-41
2021/12/19 09:58:35;;;;;;;37.27;17.83;;;;;;;4.86;92.81;98852.27;1721373;83;21012;-42
2021/12/19 10:01:06;;;;;;;26.77;16.32;;;;;;;4.97;92.68;98853.98;1721099;83;21541;-42
2021/12/19 10:03:33;;;;;;;15.80;7.28;;;;;;;5.02;92.62;98842.52;1720812;83;21008;-41
2021/12/19 10:06:20;;;;;;;26.17;12.85;;;;;;;5.00;92.55;98834.33;1721235;83;21513;-41
2021/12/19 10:09:07;;;;;;;16.90;7.85;;;;;;;4.97;92.19;98832.30;1720831;83;21012;-40
2021/12/19 10:14:33;;;;;;;12.85;6.78;;;;;;;4.99;91.88;98816.98;1721063;83;20157;-42
2021/12/19 10:17:06;;;;;;;30.27;11.53;;;;;;;5.03;91.83;98807.75;1721121;83;21047;-40
2021/12/19 10:19:51;;;;;;;62.00;24.65;;;;;;;5.06;91.72;98803.70;1721118;83;21020;-42
2021/12/19 10:22:33;;;;;;;63.50;25.72;;;;;;;5.04;91.61;98797.27;1721088;83;21024;-41
2021/12/19 10:25:27;;;;;;;51.50;22.30;;;;;;;5.09;91.69;98799.67;1721050;83;21004;-41
2021/12/19 10:27:59;;;;;;;19.12;9.25;;;;;;;5.13;91.58;98801.23;1720455;83;21513;-41
2021/12/19 10:30:33;;;;;;;10.82;5.30;;;;;;;5.12;91.10;98787.83;1690839;83;21005;-42
2021/12/19 10:33:04;;;;;;;12.98;6.75;;;;;;;5.15;91.00;98787.71;1718946;83;21040;-40
2021/12/19 10:35:35;;;;;;;16.37;8.98;;;;;;;5.13;90.95;98788.20;1720605;83;20973;-42
2021/12/19 10:38:04;;;;;;;12.18;5.15;;;;;;;5.16;90.88;98776.35;1720409;83;21556;-42
2021/12/19 10:40:30;;;;;;;36.23;14.25;;;;;;;5.16;90.65;98775.05;1721270;83;21044;-42
2021/12/19 10:43:01;;;;;;;11.05;6.05;;;;;;;5.12;90.49;98765.67;1721428;83;21517;-40
